createdAt,value
2018-02-16T00:00:00.193Z,20.98
2018-02-16T00:00:32.214Z,20.97
2018-02-16T00:01:04.264Z,20.95
2018-02-16T00:01:36.306Z,20.98
2018-02-16T00:02:09.098Z,20.98
2018-02-16T00:02:41.185Z,20.99
2018-02-16T00:03:13.208Z,20.99
2018-02-16T00:03:45.233Z,20.97
2018-02-16T00:04:18.032Z,20.99
2018-02-16T00:04:50.070Z,20.99
2018-02-16T00:05:22.101Z,21.00
2018-02-16T00:05:54.892Z,20.99
2018-02-16T00:06:26.941Z,21.01
2018-02-16T00:06:58.963Z,20.99
2018-02-16T00:07:31.106Z,20.96
2018-02-16T00:08:03.101Z,20.99
2018-02-16T00:08:35.130Z,21.00
2018-02-16T00:09:07.937Z,20.99
2018-02-16T00:09:39.956Z,20.99
2018-02-16T00:10:12.043Z,21.00
2018-02-16T00:10:44.081Z,20.96
2018-02-16T00:11:16.146Z,20.98
2018-02-16T00:11:48.181Z,20.99
2018-02-16T00:12:20.217Z,20.98
2018-02-16T00:12:52.257Z,20.99
2018-02-16T00:13:25.053Z,20.97
2018-02-16T00:13:57.084Z,20.96
2018-02-16T00:14:29.892Z,20.99
2018-02-16T00:15:01.925Z,21.00
2018-02-16T00:15:34.062Z,21.03
2018-02-16T00:16:06.860Z,21.00
2018-02-16T00:16:38.878Z,20.97
2018-02-16T00:17:10.916Z,21.00
2018-02-16T00:17:42.942Z,20.98
2018-02-16T00:18:14.969Z,20.98
2018-02-16T00:18:46.999Z,20.98
2018-02-16T00:19:19.052Z,20.98
2018-02-16T00:19:51.073Z,20.99
2018-02-16T00:20:23.869Z,20.99
2018-02-16T00:20:55.898Z,20.98
2018-02-16T00:21:28.685Z,20.98
2018-02-16T00:22:00.730Z,20.99
2018-02-16T00:22:32.769Z,21.00
2018-02-16T00:23:05.562Z,21.02
2018-02-16T00:23:37.593Z,20.98
2018-02-16T00:24:10.389Z,21.01
2018-02-16T00:24:42.436Z,21.03
2018-02-16T00:25:14.469Z,20.99
2018-02-16T00:25:46.515Z,21.00
2018-02-16T00:26:19.305Z,20.99
2018-02-16T00:26:51.345Z,21.00
2018-02-16T00:27:24.132Z,21.01
2018-02-16T00:27:56.173Z,21.00
2018-02-16T00:28:28.220Z,20.99
2018-02-16T00:29:00.256Z,20.99
2018-02-16T00:29:33.063Z,20.99
2018-02-16T00:30:05.104Z,21.00
2018-02-16T00:30:37.129Z,21.00
2018-02-16T00:31:09.936Z,20.99
2018-02-16T00:31:41.966Z,20.97
2018-02-16T00:32:14.002Z,21.01
2018-02-16T00:32:46.796Z,21.01
2018-02-16T00:33:18.859Z,20.99
2018-02-16T00:33:50.888Z,21.01
2018-02-16T00:34:22.921Z,21.00
2018-02-16T00:34:55.755Z,20.98
2018-02-16T00:35:27.761Z,21.01
2018-02-16T00:35:59.797Z,21.01
2018-02-16T00:36:32.588Z,21.00
2018-02-16T00:37:04.677Z,21.01
2018-02-16T00:37:36.696Z,21.00
2018-02-16T00:38:08.768Z,21.00
2018-02-16T00:38:40.783Z,21.00
2018-02-16T00:39:12.846Z,21.03
2018-02-16T00:39:44.951Z,21.00
2018-02-16T00:40:16.945Z,21.01
2018-02-16T00:40:48.968Z,21.01
2018-02-16T00:41:21.765Z,21.03
2018-02-16T00:41:53.792Z,21.00
2018-02-16T00:42:26.586Z,21.01
2018-02-16T00:42:58.658Z,21.01
2018-02-16T00:43:31.403Z,21.03
2018-02-16T00:44:03.450Z,21.02
2018-02-16T00:44:35.528Z,21.01
2018-02-16T00:45:07.557Z,21.03
2018-02-16T00:45:39.596Z,21.00
2018-02-16T00:46:12.377Z,21.01
2018-02-16T00:46:44.410Z,21.02
2018-02-16T00:47:17.206Z,21.01
2018-02-16T00:47:49.225Z,21.00
2018-02-16T00:48:22.060Z,21.01
2018-02-16T00:48:54.094Z,21.00
2018-02-16T00:49:26.122Z,21.01
2018-02-16T00:49:58.148Z,21.01
2018-02-16T00:50:30.941Z,21.01
2018-02-16T00:51:02.982Z,21.03
2018-02-16T00:51:35.789Z,21.00
2018-02-16T00:52:07.830Z,21.02
2018-02-16T00:52:39.866Z,21.01
2018-02-16T00:53:11.905Z,21.03
2018-02-16T00:53:44.702Z,21.03
2018-02-16T00:54:16.744Z,21.04
2018-02-16T00:54:48.776Z,21.03
2018-02-16T00:55:20.822Z,21.01
2018-02-16T00:55:53.609Z,21.00
2018-02-16T00:56:25.656Z,21.04
2018-02-16T00:56:57.701Z,21.05
2018-02-16T00:57:29.742Z,21.02
2018-02-16T00:58:02.536Z,21.01
2018-02-16T00:58:34.567Z,20.99
2018-02-16T00:59:07.370Z,21.03
2018-02-16T00:59:39.389Z,21.03
2018-02-16T01:00:11.424Z,21.03
2018-02-16T01:00:44.209Z,21.00
2018-02-16T01:01:16.256Z,21.06
2018-02-16T01:01:48.991Z,21.05
2018-02-16T01:02:21.013Z,21.04
2018-02-16T01:02:53.082Z,21.05
2018-02-16T01:03:25.089Z,21.01
2018-02-16T01:03:57.125Z,21.03
2018-02-16T01:04:29.179Z,21.05
2018-02-16T01:05:02.016Z,21.03
2018-02-16T01:05:34.023Z,21.04
2018-02-16T01:06:06.100Z,21.07
2018-02-16T01:06:38.140Z,21.05
2018-02-16T01:07:10.182Z,21.05
2018-02-16T01:07:42.199Z,21.07
2018-02-16T01:08:15.000Z,21.05
2018-02-16T01:08:47.017Z,21.04
2018-02-16T01:09:19.815Z,21.06
2018-02-16T01:09:51.845Z,21.03
2018-02-16T01:10:24.629Z,21.05
2018-02-16T01:10:56.792Z,21.05
2018-02-16T01:11:28.837Z,21.06
2018-02-16T01:12:00.869Z,21.03
2018-02-16T01:12:33.668Z,21.03
2018-02-16T01:13:05.702Z,21.05
2018-02-16T01:13:37.740Z,21.06
2018-02-16T01:14:10.532Z,21.06
2018-02-16T01:14:42.554Z,21.03
2018-02-16T01:15:15.353Z,21.05
2018-02-16T01:15:47.383Z,21.05
2018-02-16T01:16:20.185Z,21.05
2018-02-16T01:16:52.219Z,21.04
2018-02-16T01:17:24.248Z,21.05
2018-02-16T01:17:57.073Z,21.05
2018-02-16T01:18:29.090Z,21.05
2018-02-16T01:19:01.121Z,21.04
2018-02-16T01:19:33.916Z,21.06
2018-02-16T01:20:05.952Z,21.04
2018-02-16T01:20:38.002Z,21.05
2018-02-16T01:21:10.038Z,21.02
2018-02-16T01:21:42.833Z,21.05
2018-02-16T01:22:14.883Z,21.06
2018-02-16T01:22:46.934Z,21.04
2018-02-16T01:23:18.973Z,21.06
2018-02-16T01:23:51.764Z,21.06
2018-02-16T01:24:23.789Z,21.05
2018-02-16T01:24:56.576Z,21.05
2018-02-16T01:25:28.612Z,21.03
2018-02-16T01:26:01.393Z,21.06
2018-02-16T01:26:33.428Z,21.06
2018-02-16T01:27:06.213Z,21.05
2018-02-16T01:27:38.261Z,21.06
2018-02-16T01:28:10.296Z,21.05
2018-02-16T01:28:43.111Z,21.04
2018-02-16T01:29:15.120Z,21.05
2018-02-16T01:29:47.928Z,21.06
2018-02-16T01:30:19.964Z,21.06
2018-02-16T01:30:51.993Z,21.05
2018-02-16T01:31:24.796Z,21.04
2018-02-16T01:31:56.816Z,21.04
2018-02-16T01:32:28.880Z,21.03
2018-02-16T01:33:00.916Z,21.06
2018-02-16T01:33:33.722Z,21.02
2018-02-16T01:34:05.743Z,21.06
2018-02-16T01:34:38.549Z,21.09
2018-02-16T01:35:10.577Z,21.07
2018-02-16T01:35:42.601Z,21.07
2018-02-16T01:36:15.389Z,21.07
2018-02-16T01:36:47.416Z,21.08
2018-02-16T01:37:20.201Z,21.05
2018-02-16T01:37:53.000Z,21.07
2018-02-16T01:38:25.041Z,21.09
2018-02-16T01:38:57.062Z,21.07
2018-02-16T01:39:29.868Z,21.09
2018-02-16T01:40:01.885Z,21.07
2018-02-16T01:40:34.696Z,21.07
2018-02-16T01:41:06.708Z,21.06
2018-02-16T01:41:39.507Z,21.07
2018-02-16T01:42:11.606Z,21.04
2018-02-16T01:42:43.613Z,21.07
2018-02-16T01:43:15.653Z,21.05
2018-02-16T01:43:47.674Z,21.10
2018-02-16T01:44:20.485Z,21.07
2018-02-16T01:44:52.514Z,21.07
2018-02-16T01:45:24.545Z,21.05
2018-02-16T01:45:57.346Z,21.08
2018-02-16T01:46:29.375Z,21.05
2018-02-16T01:47:02.171Z,21.05
2018-02-16T01:47:34.192Z,21.05
2018-02-16T01:48:06.991Z,21.08
2018-02-16T01:48:39.043Z,21.08
2018-02-16T01:49:11.094Z,21.06
2018-02-16T01:49:43.126Z,21.08
2018-02-16T01:50:15.149Z,21.10
2018-02-16T01:50:47.183Z,21.08
2018-02-16T01:51:19.206Z,21.08
2018-02-16T01:51:51.356Z,21.08
2018-02-16T01:52:23.401Z,21.09
2018-02-16T01:52:55.420Z,21.05
2018-02-16T01:53:28.226Z,21.08
2018-02-16T01:54:00.252Z,21.09
2018-02-16T01:54:33.045Z,21.09
2018-02-16T01:55:05.070Z,21.07
2018-02-16T01:55:37.876Z,21.10
2018-02-16T01:56:09.919Z,21.07
2018-02-16T01:56:41.952Z,21.09
2018-02-16T01:57:14.731Z,21.05
2018-02-16T01:57:46.841Z,21.08
2018-02-16T01:58:18.837Z,21.05
2018-02-16T01:58:50.859Z,21.07
2018-02-16T01:59:23.652Z,21.06
2018-02-16T01:59:55.683Z,21.06
2018-02-16T02:00:28.494Z,21.07
2018-02-16T02:01:00.522Z,21.06
2018-02-16T02:01:32.555Z,21.07
2018-02-16T02:02:05.368Z,21.10
2018-02-16T02:02:37.412Z,21.07
2018-02-16T02:03:09.450Z,21.08
2018-02-16T02:03:41.469Z,21.04
2018-02-16T02:04:14.306Z,21.09
2018-02-16T02:04:46.332Z,21.10
2018-02-16T02:05:18.363Z,21.05
2018-02-16T02:05:50.400Z,21.10
2018-02-16T02:06:23.211Z,21.07
2018-02-16T02:06:55.230Z,21.06
2018-02-16T02:07:27.272Z,21.09
2018-02-16T02:08:00.062Z,21.05
2018-02-16T02:08:32.084Z,21.09
2018-02-16T02:09:04.883Z,21.09
2018-02-16T02:09:36.906Z,21.06
2018-02-16T02:10:09.721Z,21.04
2018-02-16T02:10:41.738Z,21.09
2018-02-16T02:11:13.800Z,21.08
2018-02-16T02:11:46.583Z,21.11
2018-02-16T02:12:18.616Z,21.08
2018-02-16T02:12:50.644Z,21.07
2018-02-16T02:13:23.442Z,21.09
2018-02-16T02:13:55.455Z,21.09
2018-02-16T02:14:27.484Z,21.05
2018-02-16T02:14:59.515Z,21.08
2018-02-16T02:15:31.547Z,21.09
2018-02-16T02:16:03.570Z,21.07
2018-02-16T02:16:36.385Z,21.09
2018-02-16T02:17:08.413Z,21.09
2018-02-16T02:17:40.454Z,21.08
2018-02-16T02:18:12.453Z,21.11
2018-02-16T02:18:44.479Z,21.08
2018-02-16T02:19:16.516Z,21.09
2018-02-16T02:19:48.541Z,21.09
2018-02-16T02:20:21.334Z,21.08
2018-02-16T02:20:53.371Z,21.06
2018-02-16T02:21:26.154Z,21.07
2018-02-16T02:21:58.184Z,21.08
2018-02-16T02:22:31.001Z,21.09
2018-02-16T02:23:03.029Z,21.07
2018-02-16T02:23:35.041Z,21.05
2018-02-16T02:24:07.064Z,21.10
2018-02-16T02:24:39.101Z,21.10
2018-02-16T02:25:11.135Z,21.09
2018-02-16T02:25:43.160Z,21.10
2018-02-16T02:26:15.969Z,21.10
2018-02-16T02:26:48.000Z,21.09
2018-02-16T02:27:20.119Z,21.10
2018-02-16T02:27:52.123Z,21.10
2018-02-16T02:28:24.164Z,21.08
2018-02-16T02:28:56.187Z,21.12
2018-02-16T02:29:28.988Z,21.09
2018-02-16T02:30:01.017Z,21.11
2018-02-16T02:30:33.834Z,21.12
2018-02-16T02:31:05.864Z,21.08
2018-02-16T02:31:37.901Z,21.09
2018-02-16T02:32:09.923Z,21.08
2018-02-16T02:32:42.719Z,21.11
2018-02-16T02:33:14.745Z,21.08
2018-02-16T02:33:47.565Z,21.08
2018-02-16T02:34:19.607Z,21.11
2018-02-16T02:34:51.636Z,21.11
2018-02-16T02:35:24.412Z,21.11
2018-02-16T02:35:56.448Z,21.12
2018-02-16T02:36:29.241Z,21.09
2018-02-16T02:37:01.264Z,21.09
2018-02-16T02:37:34.096Z,21.10
2018-02-16T02:38:06.120Z,21.12
2018-02-16T02:38:38.134Z,21.12
2018-02-16T02:39:10.937Z,21.10
2018-02-16T02:39:42.984Z,21.09
2018-02-16T02:40:15.015Z,21.08
2018-02-16T02:40:47.824Z,21.10
2018-02-16T02:41:19.860Z,21.08
2018-02-16T02:41:51.913Z,21.09
2018-02-16T02:42:23.972Z,21.10
2018-02-16T02:42:56.009Z,21.10
2018-02-16T02:43:28.035Z,21.09
2018-02-16T02:44:00.830Z,21.09
2018-02-16T02:44:32.878Z,21.08
2018-02-16T02:45:05.647Z,21.07
2018-02-16T02:45:37.674Z,21.07
2018-02-16T02:46:10.472Z,21.09
2018-02-16T02:46:42.503Z,21.08
2018-02-16T02:47:14.532Z,21.13
2018-02-16T02:47:46.573Z,21.13
2018-02-16T02:48:18.592Z,21.10
2018-02-16T02:48:50.635Z,21.12
2018-02-16T02:49:22.660Z,21.13
2018-02-16T02:49:54.756Z,21.10
2018-02-16T02:50:26.793Z,21.10
2018-02-16T02:50:58.814Z,21.08
2018-02-16T02:51:30.847Z,21.12
2018-02-16T02:52:02.872Z,21.10
2018-02-16T02:52:34.905Z,21.09
2018-02-16T02:53:06.944Z,21.09
2018-02-16T02:53:38.974Z,21.10
2018-02-16T02:54:11.763Z,21.11
2018-02-16T02:54:43.782Z,21.10
2018-02-16T02:55:16.593Z,21.09
2018-02-16T02:55:48.607Z,21.07
2018-02-16T02:56:20.661Z,21.11
2018-02-16T02:56:52.689Z,21.11
2018-02-16T02:57:24.728Z,21.08
2018-02-16T02:57:56.753Z,21.07
2018-02-16T02:58:28.787Z,21.07
2018-02-16T02:59:00.832Z,21.09
2018-02-16T02:59:32.868Z,21.07
2018-02-16T03:00:04.914Z,21.09
2018-02-16T03:00:37.759Z,21.12
2018-02-16T03:01:09.805Z,21.09
2018-02-16T03:01:41.856Z,21.10
2018-02-16T03:02:13.896Z,21.08
2018-02-16T03:02:45.914Z,21.07
2018-02-16T03:03:17.973Z,21.09
2018-02-16T03:03:50.020Z,21.07
2018-02-16T03:04:22.037Z,21.11
2018-02-16T03:04:54.849Z,21.09
2018-02-16T03:05:26.884Z,21.06
2018-02-16T03:05:58.927Z,21.08
2018-02-16T03:06:30.971Z,21.11
2018-02-16T03:07:03.761Z,21.12
2018-02-16T03:07:35.929Z,21.11
2018-02-16T03:08:07.956Z,21.06
2018-02-16T03:08:39.995Z,21.07
2018-02-16T03:09:12.783Z,21.09
2018-02-16T03:09:44.830Z,21.09
2018-02-16T03:10:16.854Z,21.06
2018-02-16T03:10:49.660Z,21.10
2018-02-16T03:11:21.677Z,21.08
2018-02-16T03:11:54.464Z,21.07
2018-02-16T03:12:26.583Z,21.08
2018-02-16T03:12:58.584Z,21.09
2018-02-16T03:13:30.662Z,21.08
2018-02-16T03:14:02.689Z,21.08
2018-02-16T03:14:34.730Z,21.08
2018-02-16T03:15:06.852Z,21.07
2018-02-16T03:15:39.642Z,21.05
2018-02-16T03:16:11.678Z,21.08
2018-02-16T03:16:44.481Z,21.08
2018-02-16T03:17:16.543Z,21.05
2018-02-16T03:17:48.565Z,21.06
2018-02-16T03:18:20.587Z,21.08
2018-02-16T03:18:52.616Z,21.09
2018-02-16T03:19:24.651Z,21.11
2018-02-16T03:19:56.688Z,21.11
2018-02-16T03:20:28.717Z,21.10
2018-02-16T03:21:01.504Z,21.07
2018-02-16T03:21:33.561Z,21.08
2018-02-16T03:22:05.621Z,21.11
2018-02-16T03:22:37.708Z,21.09
2018-02-16T03:23:09.730Z,21.08
2018-02-16T03:23:41.760Z,21.08
2018-02-16T03:24:13.797Z,21.12
2018-02-16T03:24:45.824Z,21.10
2018-02-16T03:30:08.277Z,21.01
2018-02-16T03:30:40.306Z,20.99
2018-02-16T03:31:12.381Z,21.01
2018-02-16T03:31:44.395Z,20.99
2018-02-16T03:32:16.436Z,20.98
2018-02-16T03:32:48.473Z,20.97
2018-02-16T03:33:20.510Z,20.99
2018-02-16T03:33:53.385Z,20.98
2018-02-16T03:34:26.176Z,20.99
2018-02-16T03:34:58.216Z,21.00
2018-02-16T03:35:30.257Z,21.00
2018-02-16T03:36:02.294Z,21.01
2018-02-16T03:36:34.349Z,21.01
2018-02-16T03:37:07.165Z,21.02
2018-02-16T03:37:39.193Z,21.03
2018-02-16T03:38:11.227Z,21.06
2018-02-16T03:38:44.028Z,21.05
2018-02-16T03:39:16.046Z,21.03
2018-02-16T03:39:48.848Z,20.99
2018-02-16T03:40:20.880Z,21.02
2018-02-16T03:40:52.961Z,21.05
2018-02-16T03:41:24.978Z,21.06
2018-02-16T03:41:57.017Z,21.04
2018-02-16T03:42:29.810Z,21.05
2018-02-16T03:43:01.843Z,21.02
2018-02-16T03:43:34.639Z,21.03
2018-02-16T03:44:06.688Z,21.03
2018-02-16T03:44:38.715Z,21.02
2018-02-16T03:45:11.510Z,21.02
2018-02-16T03:45:43.549Z,20.99
2018-02-16T03:46:15.628Z,21.03
2018-02-16T03:46:47.656Z,21.01
2018-02-16T03:47:19.729Z,20.96
2018-02-16T03:47:51.755Z,20.99
2018-02-16T03:48:23.783Z,20.99
2018-02-16T03:48:56.589Z,21.02
2018-02-16T03:49:28.604Z,21.01
2018-02-16T03:50:01.526Z,21.02
2018-02-16T03:50:33.540Z,21.05
2018-02-16T03:51:05.605Z,21.05
2018-02-16T03:51:37.638Z,21.05
2018-02-16T03:52:10.436Z,21.06
2018-02-16T03:52:42.454Z,21.04
2018-02-16T03:53:15.256Z,21.05
2018-02-16T03:53:47.285Z,21.05
2018-02-16T03:54:19.331Z,21.05
2018-02-16T03:54:51.372Z,21.02
2018-02-16T03:55:24.228Z,21.04
2018-02-16T03:55:56.440Z,21.03
2018-02-16T03:56:28.537Z,21.01
2018-02-16T03:57:00.560Z,21.01
2018-02-16T03:57:32.588Z,21.00
2018-02-16T03:58:04.620Z,21.00
2018-02-16T03:58:36.668Z,21.03
2018-02-16T03:59:08.712Z,21.02
2018-02-16T03:59:41.508Z,21.00
2018-02-16T04:00:13.553Z,21.02
2018-02-16T04:00:45.580Z,21.03
2018-02-16T04:01:18.382Z,21.04
2018-02-16T04:01:50.549Z,21.05
2018-02-16T04:02:22.579Z,21.05
2018-02-16T04:02:54.620Z,21.01
2018-02-16T04:03:26.687Z,20.99
2018-02-16T04:03:58.716Z,21.01
2018-02-16T04:04:30.753Z,21.02
2018-02-16T04:05:03.542Z,21.02
2018-02-16T04:05:35.663Z,20.99
2018-02-16T04:06:07.677Z,21.00
2018-02-16T04:06:39.710Z,21.01
2018-02-16T04:07:11.761Z,21.00
2018-02-16T04:07:43.784Z,20.99
2018-02-16T04:08:16.595Z,21.01
2018-02-16T04:08:48.622Z,21.02
2018-02-16T04:09:20.651Z,21.02
2018-02-16T04:09:53.443Z,21.04
2018-02-16T04:10:25.523Z,21.04
2018-02-16T04:10:57.550Z,21.04
2018-02-16T04:11:29.573Z,21.04
2018-02-16T04:12:02.376Z,21.04
2018-02-16T04:12:34.429Z,21.03
2018-02-16T04:13:06.468Z,21.02
2018-02-16T04:13:38.501Z,21.01
2018-02-16T04:14:11.300Z,21.05
2018-02-16T04:14:43.327Z,21.03
2018-02-16T04:15:16.117Z,21.04
2018-02-16T04:15:48.142Z,21.03
2018-02-16T04:16:20.951Z,21.02
2018-02-16T04:16:52.984Z,21.03
2018-02-16T04:17:25.021Z,21.03
2018-02-16T04:17:57.862Z,21.01
2018-02-16T04:18:29.876Z,21.02
2018-02-16T04:19:01.903Z,21.01
2018-02-16T04:19:33.939Z,20.99
2018-02-16T04:20:06.733Z,21.02
2018-02-16T04:20:38.769Z,20.99
2018-02-16T04:21:10.801Z,20.99
2018-02-16T04:21:43.613Z,20.98
2018-02-16T04:22:15.636Z,20.99
2018-02-16T04:22:48.436Z,20.98
2018-02-16T04:23:20.499Z,20.97
2018-02-16T04:23:52.526Z,20.98
2018-02-16T04:24:24.565Z,20.99
2018-02-16T04:24:56.588Z,21.01
2018-02-16T04:25:28.614Z,21.01
2018-02-16T04:26:00.678Z,21.02
2018-02-16T04:26:32.698Z,21.00
2018-02-16T04:27:04.734Z,21.02
2018-02-16T04:27:36.778Z,21.01
2018-02-16T04:28:08.819Z,20.99
2018-02-16T04:28:41.600Z,20.96
2018-02-16T04:29:13.649Z,20.94
2018-02-16T04:29:45.689Z,20.95
2018-02-16T04:30:18.472Z,20.97
2018-02-16T04:30:50.526Z,20.98
2018-02-16T04:31:22.559Z,20.98
2018-02-16T04:31:55.361Z,21.01
2018-02-16T04:32:27.390Z,21.00
2018-02-16T04:32:59.508Z,20.99
2018-02-16T04:33:31.529Z,21.00
2018-02-16T04:34:03.566Z,21.01
2018-02-16T04:34:35.599Z,21.00
2018-02-16T04:35:07.637Z,21.02
2018-02-16T04:35:39.676Z,21.00
2018-02-16T04:36:12.476Z,21.00
2018-02-16T04:36:44.506Z,21.01
2018-02-16T04:37:17.337Z,21.00
2018-02-16T04:37:49.365Z,21.00
2018-02-16T04:38:21.400Z,20.99
2018-02-16T04:38:53.434Z,21.00
2018-02-16T04:39:26.217Z,20.99
2018-02-16T04:39:58.261Z,21.00
2018-02-16T04:40:30.302Z,20.99
2018-02-16T04:41:03.085Z,21.01
2018-02-16T04:41:35.129Z,21.01
2018-02-16T04:42:07.964Z,21.01
2018-02-16T04:42:39.994Z,21.00
2018-02-16T04:43:12.020Z,21.00
2018-02-16T04:43:44.044Z,20.98
2018-02-16T04:44:16.092Z,20.99
2018-02-16T04:44:48.888Z,20.99
2018-02-16T04:45:20.905Z,20.98
2018-02-16T04:45:53.707Z,20.99
2018-02-16T04:46:25.737Z,20.98
2018-02-16T04:46:58.523Z,20.97
2018-02-16T04:47:30.552Z,20.99
2018-02-16T04:48:03.341Z,20.95
2018-02-16T04:48:35.383Z,20.95
2018-02-16T04:49:08.189Z,20.97
2018-02-16T04:49:40.204Z,20.96
2018-02-16T04:50:12.256Z,20.97
2018-02-16T04:50:45.053Z,20.96
2018-02-16T04:51:17.081Z,20.98
2018-02-16T04:51:49.112Z,20.99
2018-02-16T04:52:21.150Z,21.00
2018-02-16T04:52:53.172Z,20.97
2018-02-16T04:53:25.203Z,20.96
2018-02-16T04:53:57.350Z,20.95
2018-02-16T04:54:29.389Z,20.96
2018-02-16T04:55:01.431Z,20.95
2018-02-16T04:55:33.466Z,20.96
2018-02-16T04:56:05.499Z,20.94
2018-02-16T04:56:37.534Z,20.94
2018-02-16T04:57:10.323Z,20.95
2018-02-16T04:57:42.348Z,20.93
2018-02-16T04:58:15.152Z,20.94
2018-02-16T04:58:47.169Z,20.95
2018-02-16T04:59:20.012Z,20.96
2018-02-16T04:59:52.055Z,20.96
2018-02-16T05:00:24.121Z,20.95
2018-02-16T05:00:56.157Z,20.93
2018-02-16T05:01:28.206Z,20.93
2018-02-16T05:02:00.254Z,20.94
2018-02-16T05:02:32.305Z,20.96
2018-02-16T05:03:04.321Z,20.93
2018-02-16T05:03:36.370Z,20.90
2018-02-16T05:04:08.409Z,20.89
2018-02-16T05:04:40.446Z,20.88
2018-02-16T05:05:13.242Z,20.83
2018-02-16T05:05:45.274Z,20.89
2018-02-16T05:06:18.090Z,20.84
2018-02-16T05:06:50.142Z,20.78
2018-02-16T05:07:22.208Z,20.68
2018-02-16T05:07:54.249Z,20.67
2018-02-16T05:08:26.288Z,20.74
2018-02-16T05:08:58.324Z,20.75
2018-02-16T05:09:30.361Z,20.74
2018-02-16T05:10:03.164Z,20.77
2018-02-16T05:10:35.199Z,20.77
2018-02-16T05:11:07.236Z,20.75
2018-02-16T05:11:39.278Z,20.78
2018-02-16T05:12:12.066Z,20.72
2018-02-16T05:12:44.110Z,20.71
2018-02-16T05:13:16.151Z,20.70
2018-02-16T05:13:48.954Z,20.67
2018-02-16T05:14:20.984Z,20.62
2018-02-16T05:14:53.013Z,20.66
2018-02-16T05:15:25.808Z,20.66
2018-02-16T05:15:57.860Z,20.65
2018-02-16T05:16:29.879Z,20.67
2018-02-16T05:17:02.680Z,20.67
2018-02-16T05:17:34.715Z,20.63
2018-02-16T05:18:06.791Z,20.59
2018-02-16T05:18:38.853Z,20.58
2018-02-16T05:19:10.887Z,20.56
2018-02-16T05:19:42.910Z,20.62
2018-02-16T05:20:15.713Z,20.59
2018-02-16T05:20:47.754Z,20.58
2018-02-16T05:21:19.785Z,20.56
2018-02-16T05:21:52.591Z,20.59
2018-02-16T05:22:24.620Z,20.62
2018-02-16T05:22:56.655Z,20.60
2018-02-16T05:23:29.469Z,20.56
2018-02-16T05:24:01.555Z,20.47
2018-02-16T05:24:33.587Z,20.48
2018-02-16T05:25:05.620Z,20.50
2018-02-16T05:25:37.649Z,20.51
2018-02-16T05:26:09.672Z,20.51
2018-02-16T05:26:42.489Z,20.48
2018-02-16T05:27:14.530Z,20.49
2018-02-16T05:27:46.574Z,20.50
2018-02-16T05:28:18.611Z,20.47
2018-02-16T05:28:51.406Z,20.39
2018-02-16T05:29:23.439Z,20.42
2018-02-16T05:29:55.468Z,20.45
2018-02-16T05:30:28.270Z,20.46
2018-02-16T05:31:00.305Z,20.47
2018-02-16T05:31:32.354Z,20.46
2018-02-16T05:32:05.164Z,20.47
2018-02-16T05:32:37.192Z,20.47
2018-02-16T05:33:09.229Z,20.46
2018-02-16T05:33:42.036Z,20.47
2018-02-16T05:34:14.089Z,20.47
2018-02-16T05:34:46.117Z,20.48
2018-02-16T05:35:18.150Z,20.49
2018-02-16T05:35:50.193Z,20.47
2018-02-16T05:36:22.998Z,20.43
2018-02-16T05:36:55.036Z,20.47
2018-02-16T05:37:27.151Z,20.46
2018-02-16T05:37:59.194Z,20.41
2018-02-16T05:38:31.249Z,20.40
2018-02-16T05:39:03.281Z,20.42
2018-02-16T05:39:35.348Z,20.40
2018-02-16T05:40:07.369Z,20.41
2018-02-16T05:40:39.412Z,20.38
2018-02-16T05:41:11.444Z,20.32
2018-02-16T05:41:43.472Z,20.33
2018-02-16T05:42:15.512Z,20.48
2018-02-16T05:42:47.545Z,20.44
2018-02-16T05:43:19.632Z,19.91
2018-02-16T05:43:51.720Z,17.90
2018-02-16T05:44:23.789Z,16.23
2018-02-16T05:44:55.840Z,15.09
2018-02-16T05:45:28.646Z,14.24
2018-02-16T05:46:00.672Z,13.68
2018-02-16T05:46:33.509Z,13.33
2018-02-16T05:47:05.504Z,12.99
2018-02-16T05:47:37.544Z,12.89
2018-02-16T05:48:09.583Z,13.66
2018-02-16T05:48:41.634Z,14.57
2018-02-16T05:49:14.433Z,15.61
2018-02-16T05:49:46.458Z,16.46
2018-02-16T05:50:19.288Z,17.16
2018-02-16T05:50:51.319Z,17.75
2018-02-16T05:51:23.400Z,18.24
2018-02-16T05:51:55.424Z,18.68
2018-02-16T05:52:27.480Z,19.02
2018-02-16T05:52:59.520Z,19.32
2018-02-16T05:53:31.561Z,19.52
2018-02-16T05:54:03.590Z,19.73
2018-02-16T05:54:36.411Z,19.89
2018-02-16T05:55:09.211Z,20.03
2018-02-16T05:55:41.235Z,20.15
2018-02-16T05:56:13.269Z,20.28
2018-02-16T05:56:45.292Z,20.38
2018-02-16T05:57:17.337Z,20.49
2018-02-16T05:57:49.375Z,20.50
2018-02-16T05:58:21.417Z,20.57
2018-02-16T05:58:53.454Z,20.68
2018-02-16T05:59:25.484Z,20.76
2018-02-16T05:59:58.295Z,20.83
2018-02-16T06:00:30.322Z,20.88
2018-02-16T06:01:02.365Z,20.95
2018-02-16T06:01:34.556Z,21.04
2018-02-16T06:02:06.620Z,21.09
2018-02-16T06:02:38.653Z,21.13
2018-02-16T06:03:10.689Z,21.15
2018-02-16T06:03:42.796Z,21.18
2018-02-16T06:04:14.821Z,21.25
2018-02-16T06:04:46.882Z,21.31
2018-02-16T06:05:18.909Z,21.33
2018-02-16T06:05:50.958Z,21.35
2018-02-16T06:06:23.566Z,21.41
2018-02-16T06:06:55.579Z,21.42
2018-02-16T06:07:27.624Z,21.46
2018-02-16T06:07:59.645Z,21.51
2018-02-16T06:08:32.450Z,21.51
2018-02-16T06:09:04.487Z,21.54
2018-02-16T06:09:36.541Z,21.58
2018-02-16T06:10:08.578Z,21.51
2018-02-16T06:10:40.620Z,21.50
2018-02-16T06:11:13.412Z,21.55
2018-02-16T06:11:45.468Z,21.52
2018-02-16T06:12:17.508Z,21.54
2018-02-16T06:12:49.548Z,21.57
2018-02-16T06:13:21.601Z,21.56
2018-02-16T06:13:53.620Z,21.57
2018-02-16T06:14:26.430Z,21.61
2018-02-16T06:14:58.469Z,21.60
2018-02-16T06:15:30.499Z,21.63
2018-02-16T06:16:03.327Z,21.66
2018-02-16T06:16:35.355Z,21.66
2018-02-16T06:17:07.384Z,21.67
2018-02-16T06:17:40.166Z,21.67
2018-02-16T06:18:12.196Z,21.67
2018-02-16T06:18:44.997Z,21.68
2018-02-16T06:19:17.042Z,21.69
2018-02-16T06:19:49.073Z,21.69
2018-02-16T06:20:21.864Z,21.70
2018-02-16T06:20:53.920Z,21.70
2018-02-16T06:21:25.931Z,21.71
2018-02-16T06:21:57.980Z,21.68
2018-02-16T06:22:30.015Z,21.69
2018-02-16T06:23:02.042Z,21.69
2018-02-16T06:23:34.084Z,21.70
2018-02-16T06:24:06.119Z,21.71
2018-02-16T06:24:38.140Z,21.69
2018-02-16T06:25:10.944Z,21.71
2018-02-16T06:25:42.992Z,21.71
2018-02-16T06:26:15.006Z,21.69
2018-02-16T06:26:47.035Z,21.67
2018-02-16T06:27:19.075Z,21.64
2018-02-16T06:27:51.116Z,21.64
2018-02-16T06:28:23.145Z,21.58
2018-02-16T06:28:55.162Z,21.56
2018-02-16T06:29:27.202Z,21.57
2018-02-16T06:29:59.243Z,21.53
2018-02-16T06:30:31.280Z,21.50
2018-02-16T06:31:03.348Z,21.51
2018-02-16T06:31:35.345Z,21.53
2018-02-16T06:32:07.387Z,21.49
2018-02-16T06:32:40.176Z,21.45
2018-02-16T06:33:12.202Z,21.47
2018-02-16T06:33:45.004Z,21.45
2018-02-16T06:34:17.054Z,21.46
2018-02-16T06:34:49.085Z,21.44
2018-02-16T06:35:21.894Z,21.43
2018-02-16T06:35:53.933Z,21.42
2018-02-16T06:36:25.950Z,21.43
2018-02-16T06:36:58.759Z,21.42
2018-02-16T06:37:30.801Z,21.43
2018-02-16T06:38:02.852Z,21.42
2018-02-16T06:38:34.871Z,21.42
2018-02-16T06:39:07.674Z,21.39
2018-02-16T06:39:39.774Z,21.38
2018-02-16T06:40:11.777Z,21.38
2018-02-16T06:40:43.824Z,21.38
2018-02-16T06:41:15.851Z,21.35
2018-02-16T06:41:47.871Z,21.33
2018-02-16T06:42:19.910Z,21.33
2018-02-16T06:42:51.941Z,21.32
2018-02-16T06:43:23.972Z,21.32
2018-02-16T06:43:56.032Z,21.33
2018-02-16T06:44:28.790Z,21.33
2018-02-16T06:45:00.819Z,21.31
2018-02-16T06:45:33.617Z,21.32
2018-02-16T06:46:05.672Z,21.31
2018-02-16T06:46:37.706Z,21.29
2018-02-16T06:47:10.500Z,21.29
2018-02-16T06:47:42.580Z,21.28
2018-02-16T06:48:14.618Z,21.28
2018-02-16T06:48:46.638Z,21.28
2018-02-16T06:49:18.690Z,21.31
2018-02-16T06:49:50.724Z,21.29
2018-02-16T06:50:22.802Z,21.28
2018-02-16T06:50:54.831Z,21.29
2018-02-16T06:51:27.629Z,21.29
2018-02-16T06:51:59.665Z,21.26
2018-02-16T06:52:31.706Z,21.27
2018-02-16T06:53:03.742Z,21.28
2018-02-16T06:53:35.788Z,21.30
2018-02-16T06:54:07.820Z,21.30
2018-02-16T06:54:39.853Z,21.29
2018-02-16T06:55:12.658Z,21.27
2018-02-16T06:55:44.696Z,21.28
2018-02-16T06:56:16.725Z,21.28
2018-02-16T06:56:49.544Z,21.29
2018-02-16T06:57:21.581Z,21.30
2018-02-16T06:57:53.612Z,21.29
2018-02-16T06:58:25.640Z,21.31
2018-02-16T06:58:58.449Z,21.30
2018-02-16T06:59:30.499Z,21.29